createdAt,value
2018-12-10T00:00:42.171Z,1.10
2018-12-10T00:03:18.112Z,1.17
2018-12-10T00:05:50.152Z,1.20
2018-12-10T00:08:21.000Z,1.20
2018-12-10T00:10:52.434Z,1.40
2018-12-10T00:13:23.277Z,1.27
2018-12-10T00:15:54.204Z,0.97
2018-12-10T00:18:25.015Z,1.23
2018-12-10T00:20:55.847Z,0.97
2018-12-10T00:23:26.556Z,1.20
2018-12-10T00:25:57.961Z,1.20
2018-12-10T00:28:28.829Z,1.40
2018-12-10T00:30:59.738Z,1.40
2018-12-10T00:33:30.516Z,1.27
2018-12-10T00:36:06.451Z,1.40
2018-12-10T00:38:37.264Z,1.30
2018-12-10T00:41:08.080Z,1.30
2018-12-10T00:43:39.265Z,1.50
2018-12-10T00:46:10.044Z,1.50
2018-12-10T00:48:40.777Z,1.73
2018-12-10T00:51:12.839Z,1.70
2018-12-10T00:53:43.595Z,1.73
2018-12-10T00:56:14.455Z,1.87
2018-12-10T00:58:45.287Z,1.90
2018-12-10T01:01:17.503Z,1.63
2018-12-10T01:03:48.465Z,1.53
2018-12-10T01:06:19.269Z,1.60
2018-12-10T01:08:50.755Z,1.90
2018-12-10T01:11:22.083Z,1.90
2018-12-10T01:13:53.005Z,1.70
2018-12-10T01:16:23.859Z,2.20
2018-12-10T01:18:54.585Z,1.73
2018-12-10T01:21:25.733Z,2.03
2018-12-10T01:23:56.541Z,1.83
2018-12-10T01:26:27.286Z,1.67
2018-12-10T01:28:58.011Z,1.80
2018-12-10T01:31:29.162Z,1.50
2018-12-10T01:34:00.069Z,1.60
2018-12-10T01:36:30.947Z,1.60
2018-12-10T01:39:01.799Z,1.70
2018-12-10T01:41:32.982Z,1.80
2018-12-10T01:44:03.984Z,1.93
2018-12-10T01:46:34.952Z,1.80
2018-12-10T01:49:05.810Z,2.00
2018-12-10T01:51:38.119Z,1.67
2018-12-10T01:54:09.047Z,1.90
2018-12-10T01:56:39.804Z,1.80
2018-12-10T01:59:10.560Z,1.50
2018-12-10T02:01:41.663Z,2.00
2018-12-10T02:04:12.483Z,2.10
2018-12-10T02:06:43.311Z,1.77
2018-12-10T02:09:14.054Z,2.13
2018-12-10T02:11:52.190Z,1.93
2018-12-10T02:16:59.478Z,1.70
2018-12-10T02:19:31.058Z,2.10
2018-12-10T02:22:02.939Z,1.90
2018-12-10T02:24:33.839Z,1.70
2018-12-10T02:27:22.382Z,2.00
2018-12-10T02:30:00.899Z,1.87
2018-12-10T02:32:35.547Z,1.83
2018-12-10T02:35:18.787Z,1.60
2018-12-10T02:38:06.230Z,1.60
2018-12-10T02:43:49.075Z,2.03
2018-12-10T02:46:26.608Z,1.73
2018-12-10T02:49:11.077Z,1.67
2018-12-10T02:51:44.962Z,1.80
2018-12-10T02:54:20.768Z,1.30
2018-12-10T02:57:03.432Z,1.30
2018-12-10T02:59:40.190Z,1.70
2018-12-10T03:05:05.975Z,1.83
2018-12-10T03:07:57.868Z,1.73
2018-12-10T03:10:29.020Z,1.53
2018-12-10T03:13:01.854Z,1.43
2018-12-10T03:15:44.397Z,1.60
2018-12-10T03:21:20.541Z,1.93
2018-12-10T03:23:59.440Z,1.50
2018-12-10T03:26:35.658Z,1.50
2018-12-10T03:29:11.833Z,1.40
2018-12-10T03:31:57.606Z,1.90
2018-12-10T03:34:35.341Z,1.60
2018-12-10T03:37:09.578Z,1.37
2018-12-10T03:39:41.165Z,1.70
2018-12-10T03:42:21.481Z,1.97
2018-12-10T03:44:56.936Z,1.60
2018-12-10T03:47:42.732Z,1.90
2018-12-10T03:50:14.892Z,1.90
2018-12-10T03:53:09.412Z,1.60
2018-12-10T04:04:45.603Z,1.93
2018-12-10T04:07:22.682Z,2.10
2018-12-10T04:09:58.539Z,2.30
2018-12-10T04:12:41.351Z,1.70
2018-12-10T04:15:15.782Z,1.97
2018-12-10T04:17:57.736Z,1.50
2018-12-10T04:26:24.748Z,1.90
2018-12-10T04:32:05.375Z,1.80
2018-12-10T04:34:41.979Z,1.70
2018-12-10T04:37:16.540Z,1.80
2018-12-10T04:39:49.414Z,1.53
2018-12-10T04:42:24.040Z,1.80
2018-12-10T04:44:56.514Z,2.07
2018-12-10T04:47:46.783Z,1.80
2018-12-10T04:50:26.714Z,1.90
2018-12-10T04:53:08.369Z,1.80
2018-12-10T04:55:50.326Z,1.80
2018-12-10T05:01:19.195Z,2.10
2018-12-10T05:03:57.390Z,1.83
2018-12-10T05:09:33.077Z,1.60
2018-12-10T05:12:17.001Z,1.90
2018-12-10T05:15:00.565Z,1.73
2018-12-10T05:17:38.493Z,1.93
2018-12-10T05:20:13.422Z,1.70
2018-12-10T05:22:59.519Z,1.70
2018-12-10T05:31:38.900Z,1.63
2018-12-10T05:34:19.472Z,1.83
2018-12-10T05:36:56.511Z,1.20
2018-12-10T05:39:31.279Z,1.10
2018-12-10T05:42:07.387Z,1.80
2018-12-10T05:44:44.485Z,1.83
2018-12-10T05:47:17.210Z,1.03
2018-12-10T05:49:50.057Z,1.10
2018-12-10T05:52:34.439Z,0.80
2018-12-10T05:55:16.517Z,0.90
2018-12-10T05:57:53.684Z,0.93
2018-12-10T06:00:27.570Z,0.93
2018-12-10T06:03:03.535Z,0.90
2018-12-10T06:05:39.946Z,0.83
2018-12-10T06:08:17.004Z,1.10
2018-12-10T06:10:53.810Z,1.33
2018-12-10T06:13:28.501Z,0.83
2018-12-10T06:16:00.692Z,0.77
2018-12-10T06:18:35.193Z,1.07
2018-12-10T06:21:13.758Z,0.90
2018-12-10T06:23:51.429Z,1.10
2018-12-10T06:26:24.744Z,1.10
2018-12-10T06:28:57.438Z,1.20
2018-12-10T06:45:24.622Z,1.70
2018-12-10T06:48:06.342Z,1.93
2018-12-10T06:50:40.893Z,1.93
2018-12-10T06:53:15.765Z,3.30
2018-12-10T06:55:51.995Z,2.10
2018-12-10T06:58:29.812Z,2.10
2018-12-10T07:01:02.512Z,2.37
2018-12-10T07:03:36.950Z,2.30
2018-12-10T07:06:08.406Z,2.90
2018-12-10T07:08:39.501Z,2.83
2018-12-10T07:11:10.377Z,2.80
2018-12-10T07:13:41.626Z,2.63
2018-12-10T07:16:13.599Z,2.60
2018-12-10T07:18:44.527Z,2.63
2018-12-10T07:21:15.799Z,2.80
2018-12-10T07:23:46.759Z,2.50
2018-12-10T07:26:19.300Z,3.17
2018-12-10T07:28:50.752Z,3.07
2018-12-10T07:31:24.219Z,3.10
2018-12-10T07:33:55.479Z,3.10
2018-12-10T07:36:26.415Z,3.37
2018-12-10T07:38:57.343Z,3.30
2018-12-10T07:41:48.548Z,3.10
2018-12-10T07:44:19.790Z,2.90
2018-12-10T07:46:52.256Z,3.60
2018-12-10T07:49:23.251Z,3.30
2018-12-10T07:51:54.190Z,3.13
2018-12-10T07:54:25.107Z,2.60
2018-12-10T07:56:57.398Z,3.10
2018-12-10T07:59:28.238Z,2.93
2018-12-10T08:01:59.121Z,3.07
2018-12-10T08:04:29.946Z,3.13
2018-12-10T08:07:00.832Z,3.40
2018-12-10T08:09:32.148Z,3.17
2018-12-10T08:12:08.500Z,2.90
2018-12-10T08:14:43.334Z,2.83
2018-12-10T08:17:17.628Z,2.50
2018-12-10T08:20:03.756Z,2.70
2018-12-10T08:22:39.002Z,3.03
2018-12-10T08:25:28.321Z,2.93
2018-12-10T08:28:02.716Z,2.77
2018-12-10T08:30:41.828Z,2.80
2018-12-10T08:33:31.658Z,3.30
2018-12-10T08:36:07.594Z,2.80
2018-12-10T08:38:41.939Z,2.77
2018-12-10T08:44:32.221Z,2.93
2018-12-10T08:52:27.698Z,2.63
2018-12-10T08:55:10.179Z,2.63
2018-12-10T09:00:46.360Z,2.50
2018-12-10T09:03:28.462Z,2.87
2018-12-10T09:06:04.568Z,2.73
2018-12-10T09:14:48.096Z,2.20
2018-12-10T09:17:26.415Z,2.57
2018-12-10T09:20:03.367Z,2.37
2018-12-10T09:25:44.165Z,2.00
2018-12-10T09:28:19.540Z,2.27
2018-12-10T09:30:57.192Z,2.30
2018-12-10T09:33:45.060Z,2.70
2018-12-10T09:36:19.839Z,2.03
2018-12-10T09:38:54.723Z,2.53
2018-12-10T09:41:38.726Z,2.30
2018-12-10T09:44:23.937Z,2.03
2018-12-10T09:50:10.884Z,2.20
2018-12-10T09:52:52.315Z,2.07
2018-12-10T09:55:42.102Z,2.10
2018-12-10T09:58:21.535Z,2.30
2018-12-10T10:04:00.806Z,1.70
2018-12-10T10:06:34.826Z,2.10
2018-12-10T10:09:11.658Z,1.70
2018-12-10T10:11:57.171Z,1.90
2018-12-10T10:14:45.067Z,1.80
2018-12-10T10:17:21.463Z,2.00
2018-12-10T10:22:49.292Z,1.50
2018-12-10T10:28:26.787Z,2.20
2018-12-10T10:31:04.310Z,1.90
2018-12-10T10:33:39.991Z,1.60
2018-12-10T10:36:20.324Z,1.53
2018-12-10T10:38:55.639Z,2.10
2018-12-10T10:41:44.355Z,1.90
2018-12-10T10:44:26.867Z,1.60
2018-12-10T10:47:05.560Z,1.80
2018-12-10T10:49:49.211Z,1.70
2018-12-10T10:52:37.602Z,2.00
2018-12-10T10:55:29.411Z,2.10
2018-12-10T10:58:22.471Z,1.80
2018-12-10T11:01:04.243Z,2.03
2018-12-10T11:09:42.091Z,1.90
2018-12-10T11:12:22.543Z,1.83
2018-12-10T11:15:02.844Z,2.00
2018-12-10T11:17:39.967Z,2.07
2018-12-10T11:26:09.994Z,1.87
2018-12-10T11:34:55.505Z,1.80
2018-12-10T11:37:49.672Z,2.47
2018-12-10T11:43:31.490Z,1.80
2018-12-10T11:46:07.443Z,1.80
2018-12-10T11:48:42.063Z,2.27
2018-12-10T11:54:18.354Z,2.00
2018-12-10T11:56:51.850Z,1.57
2018-12-10T11:59:25.687Z,2.00
2018-12-10T12:02:04.489Z,2.43
2018-12-10T12:04:52.300Z,2.10
2018-12-10T12:10:30.171Z,2.10
2018-12-10T12:19:11.704Z,1.57
2018-12-10T12:21:51.322Z,1.90
2018-12-10T12:24:37.520Z,1.57
2018-12-10T12:27:12.980Z,2.30
2018-12-10T12:29:57.468Z,1.70
2018-12-10T12:32:32.064Z,1.27
2018-12-10T12:35:09.189Z,1.87
2018-12-10T12:37:53.035Z,1.93
2018-12-10T12:40:27.468Z,1.60
2018-12-10T12:49:18.766Z,1.40
2018-12-10T12:52:10.946Z,1.33
2018-12-10T12:54:58.842Z,1.40
2018-12-10T12:57:36.448Z,1.60
2018-12-10T13:00:10.751Z,1.20
2018-12-10T13:02:47.059Z,1.30
2018-12-10T13:05:22.046Z,1.13
2018-12-10T13:07:59.611Z,1.47
2018-12-10T13:13:41.761Z,1.77
2018-12-10T13:16:25.703Z,1.40
2018-12-10T13:19:07.237Z,1.47
2018-12-10T13:33:40.439Z,1.67
2018-12-10T13:36:21.197Z,1.40
2018-12-10T13:39:03.314Z,1.67
2018-12-10T13:44:43.043Z,1.30
2018-12-10T13:47:18.578Z,1.47
2018-12-10T13:52:52.918Z,1.63
2018-12-10T13:55:28.889Z,1.43
2018-12-10T13:58:02.762Z,1.50
2018-12-10T14:00:38.915Z,1.67
2018-12-10T14:03:13.931Z,2.00
2018-12-10T14:08:57.279Z,1.40
2018-12-10T14:11:34.036Z,1.70
2018-12-10T14:14:08.952Z,1.60
2018-12-10T14:16:47.507Z,1.50
2018-12-10T14:19:22.874Z,1.93
2018-12-10T14:21:58.240Z,1.50
2018-12-10T14:24:34.563Z,1.50
2018-12-10T14:27:09.266Z,1.40
2018-12-10T14:29:45.839Z,1.50
2018-12-10T14:32:35.096Z,1.63
2018-12-10T14:35:24.160Z,1.43
2018-12-10T14:37:59.825Z,1.43
2018-12-10T14:40:36.378Z,1.47
2018-12-10T14:46:21.772Z,1.77
2018-12-10T14:52:01.588Z,1.80
2018-12-10T14:54:34.154Z,1.57
2018-12-10T14:57:10.224Z,1.83
2018-12-10T14:59:46.900Z,1.97
2018-12-10T15:02:19.938Z,1.80
2018-12-10T15:05:01.780Z,1.73
2018-12-10T15:07:33.714Z,1.70
2018-12-10T15:10:15.681Z,1.43
2018-12-10T15:12:51.967Z,1.97
2018-12-10T15:15:26.237Z,1.80
2018-12-10T15:17:59.288Z,1.80
2018-12-10T15:20:31.528Z,2.00
2018-12-10T15:23:05.598Z,1.30
2018-12-10T15:25:41.046Z,1.90
2018-12-10T15:28:17.283Z,1.70
2018-12-10T15:30:53.689Z,2.20
2018-12-10T15:33:28.186Z,2.00
2018-12-10T15:36:02.388Z,1.90
2018-12-10T15:38:36.856Z,2.10
2018-12-10T15:41:13.528Z,2.20
2018-12-10T15:43:47.673Z,2.20
2018-12-10T15:46:22.232Z,2.13
2018-12-10T15:48:57.248Z,2.43
2018-12-10T15:51:31.500Z,2.50
2018-12-10T15:54:04.669Z,2.00
2018-12-10T15:56:39.683Z,1.93
2018-12-10T15:59:12.535Z,2.57
2018-12-10T16:01:47.062Z,2.33
2018-12-10T16:04:24.705Z,2.77
2018-12-10T16:07:00.196Z,2.47
2018-12-10T16:09:35.391Z,2.87
2018-12-10T16:12:10.213Z,2.80
2018-12-10T16:14:45.144Z,3.33
2018-12-10T16:17:19.291Z,2.70
2018-12-10T16:19:54.535Z,2.47
2018-12-10T16:22:26.311Z,2.63
2018-12-10T16:25:02.470Z,2.83
2018-12-10T16:27:40.922Z,2.93
2018-12-10T16:30:16.949Z,2.30
2018-12-10T16:32:53.609Z,2.00
2018-12-10T16:35:31.572Z,2.60
2018-12-10T16:38:07.244Z,2.60
2018-12-10T16:40:42.281Z,2.57
2018-12-10T16:43:16.570Z,2.30
2018-12-10T16:45:49.339Z,2.10
2018-12-10T16:48:25.655Z,2.43
2018-12-10T16:51:02.954Z,2.00
2018-12-10T16:53:41.168Z,2.13
2018-12-10T16:56:19.810Z,2.00
2018-12-10T16:58:54.230Z,1.90
2018-12-10T17:01:29.131Z,2.00
2018-12-10T17:04:02.342Z,2.20
2018-12-10T17:06:33.356Z,2.03
2018-12-10T17:09:09.766Z,2.40
2018-12-10T17:11:45.144Z,1.80
2018-12-10T17:14:20.004Z,1.73
2018-12-10T17:16:55.464Z,1.40
2018-12-10T17:19:28.026Z,2.03
2018-12-10T17:22:15.704Z,1.60
2018-12-10T17:24:50.653Z,1.60
2018-12-10T17:27:22.874Z,1.80
2018-12-10T17:29:59.979Z,1.57
2018-12-10T17:32:34.921Z,1.97
2018-12-10T17:35:07.876Z,1.67
2018-12-10T17:37:39.150Z,1.63
2018-12-10T17:40:11.712Z,2.10
2018-12-10T17:42:45.327Z,1.50
2018-12-10T17:45:20.042Z,1.67
2018-12-10T17:47:55.166Z,1.97
2018-12-10T17:50:26.322Z,1.80
2018-12-10T17:53:01.416Z,2.00
2018-12-10T17:55:37.951Z,1.70
2018-12-10T17:58:13.055Z,2.10
2018-12-10T18:00:46.106Z,1.50
2018-12-10T18:03:20.712Z,1.83
2018-12-10T18:05:52.540Z,2.13
2018-12-10T18:08:28.989Z,2.20
2018-12-10T18:10:59.933Z,1.70
2018-12-10T18:13:31.669Z,2.03
2018-12-10T18:16:02.621Z,2.07
2018-12-10T18:18:33.731Z,1.80
2018-12-10T18:21:04.696Z,2.13
2018-12-10T18:23:36.107Z,2.30
2018-12-10T18:26:10.380Z,2.07
2018-12-10T18:28:46.349Z,2.20
2018-12-10T18:31:17.407Z,2.00
2018-12-10T18:33:48.887Z,2.30
2018-12-10T18:36:20.402Z,2.17
2018-12-10T18:38:51.514Z,1.90
2018-12-10T18:41:22.440Z,2.10
2018-12-10T18:43:53.302Z,2.10
2018-12-10T18:46:24.142Z,2.10
2018-12-10T18:48:55.332Z,1.70
2018-12-10T18:51:33.021Z,2.03
2018-12-10T18:54:05.263Z,2.33
2018-12-10T18:56:36.407Z,2.00
2018-12-10T18:59:07.865Z,2.17
2018-12-10T19:01:38.775Z,2.60
2018-12-10T19:04:09.941Z,2.60
2018-12-10T19:06:41.121Z,2.57
2018-12-10T19:09:12.299Z,2.63
2018-12-10T19:11:43.708Z,2.53
2018-12-10T19:14:14.968Z,1.47
2018-12-10T19:16:45.967Z,1.37
2018-12-10T19:19:17.003Z,1.20
2018-12-10T19:21:47.807Z,1.67
2018-12-10T19:24:19.289Z,1.53
2018-12-10T19:26:50.287Z,1.83
2018-12-10T19:29:21.258Z,2.00
2018-12-10T19:31:52.122Z,1.63
2018-12-10T19:34:23.022Z,2.43
2018-12-10T19:36:56.725Z,1.80
2018-12-10T19:39:27.620Z,1.70
2018-12-10T19:41:58.481Z,1.27
2018-12-10T19:44:29.558Z,1.90
2018-12-10T19:47:00.936Z,1.40
2018-12-10T19:49:31.802Z,1.07
2018-12-10T19:52:03.001Z,1.33
2018-12-10T19:54:33.787Z,1.40
2018-12-10T19:57:04.640Z,1.57
2018-12-10T19:59:35.478Z,1.40
2018-12-10T20:02:07.638Z,1.73
2018-12-10T20:04:39.003Z,1.67
2018-12-10T20:07:10.066Z,1.30
2018-12-10T20:09:40.880Z,1.97
2018-12-10T20:12:14.067Z,1.77
2018-12-10T20:14:45.332Z,1.47
2018-12-10T20:17:16.170Z,1.43
2018-12-10T20:19:48.040Z,1.80
2018-12-10T20:22:18.842Z,1.83
2018-12-10T20:24:50.268Z,1.57
2018-12-10T20:27:21.730Z,2.00
2018-12-10T20:29:52.730Z,1.77
2018-12-10T20:32:25.091Z,2.07
2018-12-10T20:34:56.425Z,1.73
2018-12-10T20:37:27.897Z,1.90
2018-12-10T20:39:59.984Z,2.10
2018-12-10T20:42:30.890Z,1.87
2018-12-10T20:45:02.093Z,1.70
2018-12-10T20:47:32.895Z,1.77
2018-12-10T20:50:03.803Z,1.70
2018-12-10T20:52:34.660Z,2.10
2018-12-10T20:55:06.933Z,1.93
2018-12-10T20:57:41.569Z,1.77
2018-12-10T21:00:12.964Z,2.20
2018-12-10T21:02:44.153Z,2.50
2018-12-10T21:05:15.106Z,2.70
2018-12-10T21:07:49.691Z,2.47
2018-12-10T21:10:22.433Z,2.93
2018-12-10T21:12:55.790Z,3.00
2018-12-10T21:15:32.198Z,3.10
2018-12-10T21:18:05.760Z,2.97
2018-12-10T21:25:38.316Z,3.07
2018-12-10T21:28:15.018Z,4.20
2018-12-10T21:30:51.413Z,3.13
2018-12-10T21:33:23.084Z,3.43
2018-12-10T21:35:54.688Z,3.60
2018-12-10T21:38:28.665Z,3.63
2018-12-10T21:41:08.888Z,3.90
2018-12-10T21:43:50.261Z,3.27
2018-12-10T21:46:26.089Z,3.73
2018-12-10T21:49:02.973Z,4.07
2018-12-10T21:51:39.367Z,3.83
2018-12-10T21:54:11.113Z,3.87
2018-12-10T21:56:41.980Z,2.90
2018-12-10T21:59:17.802Z,3.30
2018-12-10T22:01:54.467Z,2.70
2018-12-10T22:04:33.691Z,2.73
2018-12-10T22:07:15.636Z,2.53
2018-12-10T22:09:53.344Z,2.40
2018-12-10T22:12:24.887Z,2.53
2018-12-10T22:14:55.835Z,2.40
2018-12-10T22:17:26.794Z,2.27
2018-12-10T22:20:15.730Z,2.30
2018-12-10T22:22:55.552Z,2.53
2018-12-10T22:25:28.998Z,2.03
2018-12-10T22:28:21.803Z,2.23
2018-12-10T22:30:58.287Z,2.50
2018-12-10T22:33:39.719Z,1.90
2018-12-10T22:36:17.453Z,2.30
2018-12-10T22:38:57.423Z,2.70
2018-12-10T22:41:32.169Z,2.53
2018-12-10T22:44:13.311Z,2.63
2018-12-10T22:47:03.639Z,3.37
2018-12-10T22:49:40.025Z,3.23
2018-12-10T22:52:12.291Z,3.50
2018-12-10T22:54:49.012Z,3.70
2018-12-10T22:57:20.051Z,3.57
2018-12-10T22:59:51.517Z,3.50
2018-12-10T23:02:22.342Z,3.40
2018-12-10T23:04:53.224Z,3.63
2018-12-10T23:07:24.126Z,3.77
2018-12-10T23:09:55.918Z,3.50
2018-12-10T23:12:27.110Z,3.87
2018-12-10T23:14:58.068Z,3.50
2018-12-10T23:17:29.025Z,3.70
2018-12-10T23:20:00.318Z,4.20
2018-12-10T23:22:31.231Z,3.90
2018-12-10T23:25:02.123Z,3.70
2018-12-10T23:27:33.123Z,3.80
2018-12-10T23:30:05.198Z,3.93
2018-12-10T23:32:36.072Z,3.73
2018-12-10T23:35:07.453Z,3.67
2018-12-10T23:37:38.395Z,4.10
2018-12-10T23:40:09.398Z,3.30
2018-12-10T23:42:44.249Z,3.23
2018-12-10T23:45:15.288Z,3.47
2018-12-10T23:47:47.766Z,3.63
2018-12-10T23:50:18.684Z,3.33
2018-12-10T23:52:53.663Z,3.23
2018-12-10T23:55:29.203Z,4.03
2018-12-10T23:58:04.164Z,3.17
